NCAR-RAP Real-Time Weather Data

Output produced by METARs form (06 May 2021  15:17 UTC)
found at http://weather.rap.ucar.edu/surface/
 
KCEZ 061453Z AUTO 01003KT 10SM CLR 13/M08 A3033 RMK AO2 SLP222 T01331078 50012
KCEZ 061353Z AUTO 05003KT 10SM CLR 08/M08 A3033 RMK AO2 SLP222 T00781078
KCEZ 061253Z AUTO 07005KT 10SM CLR M01/M09 A3031 RMK AO2 SLP225 T10061094 $
KCEZ 061153Z AUTO 08003KT 10SM CLR M02/M10 A3029 RMK AO2 SLP216 T10221100 10050 21028 53004 $
KCEZ 061053Z AUTO 06005KT 10SM CLR M02/M10 A3028 RMK AO2 SLP214 T10171100 $
KCEZ 060953Z AUTO 05006KT 10SM CLR M02/M09 A3028 RMK AO2 SLP210 T10171094 $
KCEZ 060853Z AUTO 06006KT 10SM CLR 01/M08 A3027 RMK AO2 SLP204 T00061083 58002 $
KCEZ 060753Z AUTO 06006KT 10SM CLR 03/M08 A3028 RMK AO2 SLP207 T00281083 $
KCEZ 060653Z AUTO 14003KT 10SM CLR 04/M08 A3029 RMK AO2 SLP207 T00441083 402561006 $
KCEZ 060553Z AUTO 06005KT 10SM CLR 05/M08 A3028 RMK AO2 SLP205 T00501078 10239 20050 $
KCEZ 060453Z AUTO 06006KT 10SM CLR 06/M07 A3028 RMK AO2 SLP203 T00611067 $
KCEZ 060353Z AUTO 04007KT 10SM CLR 12/M07 A3026 RMK AO2 SLP192 T01221072
KCEZ 060253Z AUTO 10003KT 10SM CLR 13/M08 A3022 RMK AO2 SLP185 T01281083 53016
KCEZ 060153Z AUTO 35006KT 10SM CLR 20/M11 A3019 RMK AO2 SLP169 T02001106